createdAt,value
2022-11-29T00:01:40.793Z,81.32
2022-11-29T00:04:08.956Z,81.36
2022-11-29T00:06:37.028Z,81.41
2022-11-29T00:09:11.960Z,81.46
2022-11-29T00:12:00.153Z,81.44
2022-11-29T00:14:28.580Z,81.48
2022-11-29T00:17:01.220Z,81.50
2022-11-29T00:19:28.998Z,81.53
2022-11-29T00:21:56.723Z,81.50
2022-11-29T00:24:24.496Z,81.49
2022-11-29T00:26:52.010Z,81.49
2022-11-29T00:29:19.868Z,81.52
2022-11-29T00:31:47.627Z,81.48
2022-11-29T00:34:15.112Z,81.48
2022-11-29T00:36:42.803Z,81.57
2022-11-29T00:39:12.055Z,81.62
2022-11-29T00:41:40.360Z,81.62
2022-11-29T00:44:09.630Z,81.68
2022-11-29T00:46:38.093Z,81.75
2022-11-29T00:49:06.087Z,81.78
2022-11-29T00:51:33.822Z,81.87
2022-11-29T00:54:01.844Z,81.88
2022-11-29T00:56:29.535Z,81.91
2022-11-29T00:58:57.530Z,82.00
2022-11-29T01:01:25.150Z,82.04
2022-11-29T01:03:53.226Z,82.06
2022-11-29T01:06:21.140Z,82.14
2022-11-29T01:08:50.225Z,82.29
2022-11-29T01:11:24.608Z,82.49
2022-11-29T01:13:56.755Z,82.55
2022-11-29T01:16:25.954Z,82.62
2022-11-29T01:18:53.731Z,82.75
2022-11-29T01:21:23.872Z,82.83
2022-11-29T01:23:53.470Z,82.81
2022-11-29T01:26:24.639Z,82.83
2022-11-29T01:28:55.832Z,82.85
2022-11-29T01:31:31.582Z,82.87
2022-11-29T01:34:02.457Z,82.86
2022-11-29T01:36:30.630Z,82.84
2022-11-29T01:39:04.205Z,82.83
2022-11-29T01:41:35.236Z,82.83
2022-11-29T01:44:14.131Z,82.84
2022-11-29T01:46:45.284Z,82.88
2022-11-29T01:49:21.217Z,82.92
2022-11-29T01:52:02.648Z,83.01
2022-11-29T01:54:32.580Z,83.03
2022-11-29T01:57:04.409Z,83.09
2022-11-29T01:59:34.084Z,83.23
2022-11-29T02:02:19.191Z,83.37
2022-11-29T02:04:49.419Z,83.47
2022-11-29T02:07:17.269Z,83.54
2022-11-29T02:09:45.093Z,83.54
2022-11-29T02:12:45.382Z,83.61
2022-11-29T02:15:42.499Z,83.61
2022-11-29T02:18:21.731Z,83.62
2022-11-29T02:21:12.979Z,83.62
2022-11-29T02:24:18.292Z,83.63
2022-11-29T02:27:31.198Z,83.51
2022-11-29T02:30:10.486Z,83.49
2022-11-29T02:32:51.921Z,83.42
2022-11-29T02:35:40.260Z,83.28
2022-11-29T02:38:49.559Z,83.39
2022-11-29T02:41:37.848Z,83.48
2022-11-29T02:44:31.560Z,83.60
2022-11-29T02:47:07.383Z,83.62
2022-11-29T02:50:18.227Z,83.67
2022-11-29T02:52:57.322Z,83.49
2022-11-29T02:55:57.188Z,83.50
2022-11-29T02:58:30.224Z,83.58
2022-11-29T03:01:22.814Z,83.57
2022-11-29T03:03:58.737Z,83.61
2022-11-29T03:06:57.327Z,83.71
2022-11-29T03:09:44.720Z,83.64
2022-11-29T03:12:41.933Z,83.75
2022-11-29T03:15:36.416Z,83.75
2022-11-29T03:18:50.906Z,83.77
2022-11-29T03:21:36.398Z,83.86
2022-11-29T03:24:15.857Z,84.00
2022-11-29T03:26:51.727Z,84.50
2022-11-29T03:29:29.765Z,84.93
2022-11-29T03:32:05.583Z,84.90
2022-11-29T03:35:02.862Z,84.82
2022-11-29T03:38:06.231Z,84.73
2022-11-29T03:41:02.870Z,84.74
2022-11-29T03:43:44.967Z,84.73
2022-11-29T03:46:35.011Z,84.68
2022-11-29T03:49:17.212Z,84.67
2022-11-29T03:52:02.734Z,84.72
2022-11-29T03:55:12.731Z,84.67
2022-11-29T03:57:57.586Z,84.67
2022-11-29T04:00:29.699Z,84.65
2022-11-29T04:03:22.392Z,84.72
2022-11-29T04:05:58.127Z,84.67
2022-11-29T04:08:49.194Z,84.70
2022-11-29T04:11:45.347Z,84.81
2022-11-29T04:14:47.121Z,84.77
2022-11-29T04:17:38.430Z,84.96
2022-11-29T04:20:17.366Z,84.94
2022-11-29T04:23:05.830Z,84.87
2022-11-29T04:25:44.545Z,84.76
2022-11-29T04:28:40.333Z,84.79
2022-11-29T04:31:33.995Z,84.76
2022-11-29T04:34:22.394Z,84.75
2022-11-29T04:37:04.144Z,84.78
2022-11-29T04:39:52.254Z,84.76
2022-11-29T04:42:43.439Z,84.82
2022-11-29T04:45:59.546Z,84.87
2022-11-29T04:49:14.004Z,84.92
2022-11-29T04:52:13.746Z,84.95
2022-11-29T04:54:52.910Z,85.02
2022-11-29T04:58:14.641Z,84.93
2022-11-29T05:01:00.566Z,84.80
2022-11-29T05:03:56.833Z,84.77
2022-11-29T05:07:04.011Z,84.87
2022-11-29T05:09:49.448Z,84.89
2022-11-29T05:12:47.183Z,84.93
2022-11-29T05:15:29.601Z,85.04
2022-11-29T05:18:15.016Z,85.02
2022-11-29T05:21:08.246Z,85.10
2022-11-29T05:23:56.598Z,85.09
2022-11-29T05:26:32.664Z,85.08
2022-11-29T05:29:14.616Z,85.06
2022-11-29T05:32:28.642Z,85.10
2022-11-29T05:35:19.814Z,85.18
2022-11-29T05:38:04.909Z,85.28
2022-11-29T05:40:53.372Z,85.33
2022-11-29T05:44:01.008Z,85.37
2022-11-29T05:46:53.011Z,85.34
2022-11-29T05:49:46.020Z,85.32
2022-11-29T05:52:45.208Z,85.27
2022-11-29T05:55:42.768Z,85.22
2022-11-29T05:58:30.542Z,85.06
2022-11-29T06:01:03.564Z,85.01
2022-11-29T06:03:43.066Z,84.84
2022-11-29T06:06:40.368Z,85.01
2022-11-29T06:09:31.220Z,85.28
2022-11-29T06:12:07.272Z,86.38
2022-11-29T06:15:08.688Z,86.56
2022-11-29T06:18:03.265Z,86.17
2022-11-29T06:20:54.892Z,84.81
2022-11-29T06:23:42.748Z,85.01
2022-11-29T06:26:33.276Z,83.53
2022-11-29T06:29:24.829Z,83.12
2022-11-29T06:31:57.840Z,81.75
2022-11-29T06:34:55.154Z,81.92
2022-11-29T06:37:30.984Z,81.15
2022-11-29T06:39:59.118Z,80.25
2022-11-29T06:42:26.854Z,79.07
2022-11-29T06:44:56.210Z,77.63
2022-11-29T06:47:31.493Z,78.27
2022-11-29T06:50:28.987Z,76.97
2022-11-29T06:53:35.615Z,76.26
2022-11-29T06:56:26.663Z,77.47
2022-11-29T06:59:39.847Z,77.62
2022-11-29T07:02:30.269Z,77.08
2022-11-29T07:05:24.227Z,76.58
2022-11-29T07:07:56.583Z,76.22
2022-11-29T07:10:25.279Z,75.79
2022-11-29T07:12:53.469Z,75.75
2022-11-29T07:15:23.272Z,75.38
2022-11-29T07:18:14.345Z,75.39
2022-11-29T07:21:06.086Z,74.94
2022-11-29T07:24:02.662Z,74.88
2022-11-29T07:27:08.472Z,74.87
2022-11-29T07:30:02.473Z,74.28
2022-11-29T07:32:43.647Z,73.31
2022-11-29T07:35:35.602Z,73.00
2022-11-29T07:38:39.091Z,73.56
2022-11-29T07:41:29.818Z,73.07
2022-11-29T07:44:05.807Z,72.88
2022-11-29T07:46:33.348Z,71.78
2022-11-29T07:49:01.224Z,70.88
2022-11-29T07:51:28.918Z,70.71
2022-11-29T07:53:56.593Z,71.44
2022-11-29T07:56:24.378Z,70.83
2022-11-29T07:58:51.975Z,70.27
2022-11-29T08:01:19.737Z,70.67
2022-11-29T08:03:47.550Z,70.79
2022-11-29T08:06:15.201Z,69.64
2022-11-29T08:08:44.340Z,68.59
2022-11-29T08:11:13.222Z,69.35
2022-11-29T08:13:40.768Z,68.93
2022-11-29T08:16:08.715Z,68.44
2022-11-29T08:18:36.597Z,68.54
2022-11-29T08:21:07.788Z,68.83
2022-11-29T08:23:35.450Z,68.26
2022-11-29T08:26:04.099Z,68.76
2022-11-29T08:28:31.617Z,68.71
2022-11-29T08:31:05.331Z,68.17
2022-11-29T08:33:37.410Z,68.00
2022-11-29T08:36:12.292Z,67.04
2022-11-29T08:38:40.408Z,66.78
2022-11-29T08:41:11.478Z,66.99
2022-11-29T08:43:39.824Z,66.34
2022-11-29T08:46:10.473Z,66.46
2022-11-29T08:48:39.607Z,65.43
2022-11-29T08:51:07.893Z,65.05
2022-11-29T08:53:42.001Z,63.55
2022-11-29T08:58:46.100Z,62.95
2022-11-29T09:01:17.799Z,62.30
2022-11-29T09:04:04.958Z,62.51
2022-11-29T09:06:42.548Z,61.86
2022-11-29T09:09:10.437Z,61.57
2022-11-29T09:11:38.288Z,61.36
2022-11-29T09:14:10.261Z,60.62
2022-11-29T09:16:38.732Z,60.36
2022-11-29T09:19:07.457Z,61.42
2022-11-29T09:21:36.270Z,61.09
2022-11-29T09:24:05.941Z,60.12
2022-11-29T09:26:37.435Z,60.13
2022-11-29T09:29:06.549Z,59.09
2022-11-29T09:31:35.220Z,59.13
2022-11-29T09:34:02.992Z,59.83
2022-11-29T09:36:31.504Z,58.16
2022-11-29T09:39:02.362Z,59.18
2022-11-29T09:41:56.952Z,58.94
2022-11-29T09:44:39.115Z,56.44
2022-11-29T09:47:39.500Z,56.89
2022-11-29T09:50:40.006Z,56.34
2022-11-29T09:53:31.101Z,57.54
2022-11-29T09:56:28.958Z,56.68
2022-11-29T09:59:08.002Z,57.89
2022-11-29T10:01:40.452Z,56.77
2022-11-29T10:04:22.662Z,56.44
2022-11-29T10:07:01.495Z,57.42
2022-11-29T10:09:49.902Z,56.19
2022-11-29T10:12:49.495Z,56.42
2022-11-29T10:15:27.503Z,57.32
2022-11-29T10:18:06.766Z,57.00
2022-11-29T10:20:48.762Z,57.12
2022-11-29T10:23:36.500Z,56.44
2022-11-29T10:26:07.077Z,55.83
2022-11-29T10:28:37.687Z,53.95
2022-11-29T10:31:24.567Z,53.94
2022-11-29T10:33:54.222Z,51.58
2022-11-29T10:36:50.736Z,51.34
2022-11-29T10:39:27.369Z,52.29
2022-11-29T10:41:59.748Z,52.85
2022-11-29T10:44:27.959Z,53.70
2022-11-29T10:46:56.275Z,52.96
2022-11-29T10:49:29.806Z,53.16
2022-11-29T10:51:57.545Z,52.69
2022-11-29T10:54:43.063Z,52.88
2022-11-29T10:57:17.871Z,52.98
2022-11-29T11:00:06.468Z,52.96
2022-11-29T11:02:37.664Z,52.21
2022-11-29T11:05:14.760Z,53.24
2022-11-29T11:07:42.726Z,51.54
2022-11-29T11:10:27.585Z,51.25
2022-11-29T11:13:18.778Z,51.96
2022-11-29T11:16:21.025Z,51.15
2022-11-29T11:18:57.844Z,51.57
2022-11-29T11:21:29.036Z,51.56
2022-11-29T11:24:04.110Z,50.96
2022-11-29T11:26:44.421Z,51.18
2022-11-29T11:29:22.965Z,49.86
2022-11-29T11:31:59.809Z,49.88
2022-11-29T11:34:34.365Z,50.57
2022-11-29T11:37:31.636Z,50.40
2022-11-29T11:40:20.752Z,49.43
2022-11-29T11:42:52.408Z,49.83
2022-11-29T11:45:28.949Z,50.30
2022-11-29T11:48:15.543Z,49.54
2022-11-29T11:50:53.890Z,48.86
2022-11-29T11:53:36.908Z,49.00
2022-11-29T11:56:12.025Z,49.63
2022-11-29T11:58:48.371Z,49.99
2022-11-29T12:01:30.140Z,49.46
2022-11-29T12:04:23.126Z,49.47
2022-11-29T12:07:02.480Z,49.23
2022-11-29T12:09:49.822Z,49.34
2022-11-29T12:12:28.087Z,49.36
2022-11-29T12:15:17.740Z,49.50
2022-11-29T12:17:57.587Z,49.02
2022-11-29T12:20:42.824Z,49.27
2022-11-29T12:23:48.826Z,49.29
2022-11-29T12:26:56.574Z,50.17
2022-11-29T12:29:01.690Z,50.18
2022-11-29T12:32:02.021Z,48.73
2022-11-29T12:34:44.672Z,48.89
2022-11-29T12:37:50.341Z,47.40
2022-11-29T12:40:48.952Z,49.68
2022-11-29T12:43:39.824Z,50.45
2022-11-29T12:46:15.354Z,49.97
2022-11-29T12:48:57.792Z,50.30
2022-11-29T12:51:50.877Z,50.00
2022-11-29T12:55:04.376Z,49.37
2022-11-29T12:57:49.383Z,49.80
2022-11-29T13:00:21.927Z,49.85
2022-11-29T13:03:13.632Z,49.41
2022-11-29T13:05:55.804Z,49.28
2022-11-29T13:08:51.438Z,49.20
2022-11-29T13:11:36.238Z,48.24
2022-11-29T13:14:48.954Z,48.92
2022-11-29T13:17:20.651Z,49.34
2022-11-29T13:19:54.805Z,49.35
2022-11-29T13:22:55.389Z,49.61
2022-11-29T13:25:39.845Z,49.87
2022-11-29T13:28:30.029Z,49.85
2022-11-29T13:31:09.928Z,50.10
2022-11-29T13:34:18.356Z,50.22
2022-11-29T13:37:18.599Z,50.80
2022-11-29T13:40:13.110Z,51.31
2022-11-29T13:43:15.685Z,51.73
2022-11-29T13:46:08.126Z,52.44
2022-11-29T13:48:53.067Z,52.93
2022-11-29T13:51:37.844Z,53.43
2022-11-29T13:54:25.615Z,53.72
2022-11-29T13:57:08.924Z,54.10
2022-11-29T13:59:45.736Z,54.37
2022-11-29T14:02:29.038Z,54.50
2022-11-29T14:04:56.756Z,54.75
2022-11-29T14:07:24.330Z,54.96
2022-11-29T14:10:05.652Z,54.90
2022-11-29T14:12:55.565Z,55.17
2022-11-29T14:15:28.867Z,55.32
2022-11-29T14:18:05.804Z,55.44
2022-11-29T14:20:45.051Z,55.64
2022-11-29T14:23:35.246Z,55.87
2022-11-29T14:26:11.985Z,56.04
2022-11-29T14:28:40.486Z,56.26
2022-11-29T14:31:09.257Z,56.49
2022-11-29T14:33:49.614Z,56.71
2022-11-29T14:39:46.384Z,57.13
2022-11-29T14:42:20.769Z,57.49
2022-11-29T14:45:01.013Z,57.89
2022-11-29T14:47:38.681Z,58.08
2022-11-29T14:50:10.016Z,58.19
2022-11-29T14:52:41.286Z,58.41
2022-11-29T14:55:22.866Z,58.68
2022-11-29T14:58:05.514Z,58.89
2022-11-29T15:00:50.587Z,59.15
2022-11-29T15:03:41.621Z,59.38
2022-11-29T15:06:23.782Z,59.55
2022-11-29T15:09:04.551Z,59.70
2022-11-29T15:11:52.499Z,59.77
2022-11-29T15:15:04.049Z,59.89
2022-11-29T15:18:12.755Z,60.11
2022-11-29T15:21:03.830Z,60.24
2022-11-29T15:23:44.026Z,60.57
2022-11-29T15:26:20.685Z,60.81
2022-11-29T15:28:48.392Z,61.00
2022-11-29T15:31:19.725Z,61.19
2022-11-29T15:33:49.336Z,61.45
2022-11-29T15:36:22.831Z,61.82
2022-11-29T15:38:54.680Z,62.07
2022-11-29T15:41:31.622Z,62.12
2022-11-29T15:44:02.433Z,62.25
2022-11-29T15:46:34.031Z,62.49
2022-11-29T15:49:23.884Z,62.62
2022-11-29T15:51:59.789Z,62.98
2022-11-29T15:54:44.453Z,63.32
2022-11-29T15:57:15.940Z,63.51
2022-11-29T15:59:55.215Z,64.03
2022-11-29T16:02:28.331Z,63.95
2022-11-29T16:05:07.552Z,64.02
2022-11-29T16:07:36.847Z,64.28
2022-11-29T16:10:29.195Z,64.53
2022-11-29T16:12:58.688Z,65.34
2022-11-29T16:15:30.687Z,65.21
2022-11-29T16:18:19.534Z,65.45
2022-11-29T16:21:05.085Z,65.52
2022-11-29T16:23:41.581Z,65.93
2022-11-29T16:26:25.696Z,66.05
2022-11-29T16:28:58.181Z,66.22
2022-11-29T16:31:37.753Z,66.52
2022-11-29T16:34:29.874Z,66.53
2022-11-29T16:37:08.708Z,67.11
2022-11-29T16:39:39.300Z,67.20
2022-11-29T16:42:25.721Z,67.35
2022-11-29T16:48:39.916Z,67.87
2022-11-29T16:51:14.151Z,68.59
2022-11-29T16:53:47.884Z,70.03
2022-11-29T16:56:18.934Z,70.35
2022-11-29T16:59:25.730Z,70.56
2022-11-29T17:01:27.666Z,70.17
2022-11-29T17:03:58.987Z,70.37
2022-11-29T17:06:29.186Z,70.36
2022-11-29T17:08:59.111Z,70.44
2022-11-29T17:11:26.784Z,70.85
2022-11-29T17:13:54.607Z,71.07
2022-11-29T17:16:24.811Z,71.32
2022-11-29T17:18:53.350Z,71.20
2022-11-29T17:21:30.913Z,71.19
2022-11-29T17:23:59.100Z,71.17
2022-11-29T17:26:30.197Z,71.33
2022-11-29T17:28:59.379Z,71.43
2022-11-29T17:31:30.430Z,71.61
2022-11-29T17:34:00.413Z,71.68
2022-11-29T17:36:30.908Z,71.84
2022-11-29T17:39:00.271Z,71.84
2022-11-29T17:41:30.005Z,71.96
2022-11-29T17:43:58.374Z,72.12
2022-11-29T17:46:33.611Z,72.28
2022-11-29T17:49:05.930Z,72.27
2022-11-29T17:51:54.438Z,72.29
2022-11-29T17:54:09.882Z,72.31
2022-11-29T17:56:37.927Z,72.27
2022-11-29T17:59:06.439Z,72.36
2022-11-29T18:01:36.146Z,72.31
2022-11-29T18:04:06.236Z,72.37
2022-11-29T18:06:39.511Z,72.47
2022-11-29T18:09:10.161Z,72.57
2022-11-29T18:11:48.660Z,72.63
2022-11-29T18:14:22.093Z,72.70
2022-11-29T18:16:50.414Z,72.91
2022-11-29T18:19:21.236Z,73.08
2022-11-29T18:21:52.158Z,73.11
2022-11-29T18:24:20.022Z,73.20
2022-11-29T18:26:48.253Z,73.33
2022-11-29T18:29:17.063Z,73.32
2022-11-29T18:31:45.654Z,73.58
2022-11-29T18:34:14.520Z,73.42
2022-11-29T18:36:46.145Z,73.55
2022-11-29T18:39:17.576Z,73.62
2022-11-29T18:41:49.031Z,73.76
2022-11-29T18:44:21.184Z,73.67
2022-11-29T18:46:49.323Z,73.77
2022-11-29T18:49:19.492Z,73.85
2022-11-29T18:51:49.221Z,73.87
2022-11-29T18:54:19.078Z,74.14
2022-11-29T18:56:50.614Z,74.19
2022-11-29T18:59:19.022Z,74.47
2022-11-29T19:01:48.569Z,74.44
2022-11-29T19:04:19.841Z,74.75
2022-11-29T19:06:48.376Z,74.64
2022-11-29T19:09:20.527Z,74.77
2022-11-29T19:11:49.341Z,75.17
2022-11-29T19:14:18.371Z,75.12
2022-11-29T19:16:48.956Z,75.05
2022-11-29T19:19:18.554Z,75.29
2022-11-29T19:21:47.071Z,75.36
2022-11-29T19:24:19.218Z,75.33
2022-11-29T19:26:49.567Z,75.59
2022-11-29T19:29:17.462Z,75.77
2022-11-29T19:31:46.696Z,75.75
2022-11-29T19:34:14.856Z,75.76
2022-11-29T19:36:43.880Z,75.85
2022-11-29T19:39:15.288Z,75.85
2022-11-29T19:41:47.212Z,76.07
2022-11-29T19:44:15.818Z,76.12
2022-11-29T19:46:48.329Z,76.57
2022-11-29T19:49:16.663Z,76.59
2022-11-29T19:51:44.466Z,76.66
2022-11-29T19:54:12.687Z,77.00
2022-11-29T19:56:41.292Z,76.93
2022-11-29T19:59:10.392Z,77.20
2022-11-29T20:01:43.106Z,77.16
2022-11-29T20:04:15.543Z,77.21
2022-11-29T20:06:43.987Z,77.38
2022-11-29T20:09:14.007Z,77.62
2022-11-29T20:11:45.041Z,77.42
2022-11-29T20:14:14.081Z,77.46
2022-11-29T20:16:43.235Z,77.46
2022-11-29T20:19:16.718Z,77.46
2022-11-29T20:21:48.546Z,77.56
2022-11-29T20:24:19.037Z,77.78
2022-11-29T20:26:49.022Z,77.85
2022-11-29T20:29:20.001Z,77.76
2022-11-29T20:31:51.235Z,77.89
2022-11-29T20:34:20.660Z,77.88
2022-11-29T20:37:09.332Z,77.88
2022-11-29T20:40:01.167Z,78.01
2022-11-29T20:42:54.137Z,78.08
2022-11-29T20:45:24.283Z,78.81
2022-11-29T20:48:21.453Z,78.91
2022-11-29T20:50:59.909Z,78.82
2022-11-29T20:53:38.796Z,78.67
2022-11-29T20:56:08.779Z,78.59
2022-11-29T20:58:37.466Z,78.79
2022-11-29T21:01:07.440Z,78.90
2022-11-29T21:03:35.728Z,78.83
2022-11-29T21:06:05.848Z,78.83
2022-11-29T21:08:34.741Z,78.70
2022-11-29T21:11:09.811Z,78.76
2022-11-29T21:13:39.844Z,78.67
2022-11-29T21:16:13.328Z,79.02
2022-11-29T21:18:41.645Z,79.21
2022-11-29T21:21:20.714Z,79.52
2022-11-29T21:24:04.408Z,79.65
2022-11-29T21:26:51.341Z,79.69
2022-11-29T21:29:22.730Z,79.79
2022-11-29T21:31:53.640Z,79.67
2022-11-29T21:34:22.018Z,79.61
2022-11-29T21:36:59.000Z,79.61
2022-11-29T21:39:33.164Z,79.62
2022-11-29T21:42:06.003Z,79.73
2022-11-29T21:44:35.769Z,79.58
2022-11-29T21:47:04.440Z,79.51
2022-11-29T21:49:32.083Z,79.53
2022-11-29T21:52:00.940Z,79.58
2022-11-29T21:54:30.163Z,79.72
2022-11-29T21:56:59.712Z,79.64
2022-11-29T21:59:29.430Z,79.75
2022-11-29T22:01:57.579Z,79.68
2022-11-29T22:04:25.482Z,79.64
2022-11-29T22:06:54.274Z,79.73
2022-11-29T22:09:22.157Z,79.67
2022-11-29T22:11:50.171Z,79.62
2022-11-29T22:14:18.334Z,79.66
2022-11-29T22:16:53.738Z,79.68
2022-11-29T22:19:24.014Z,79.75
2022-11-29T22:21:55.718Z,79.78
2022-11-29T22:24:27.523Z,79.76
2022-11-29T22:26:56.223Z,79.76
2022-11-29T22:29:24.832Z,79.74
2022-11-29T22:31:58.971Z,79.78
2022-11-29T22:34:27.853Z,79.89
2022-11-29T22:36:56.305Z,79.86
2022-11-29T22:39:24.320Z,79.90
2022-11-29T22:41:55.009Z,80.06
2022-11-29T22:44:24.696Z,79.93
2022-11-29T22:46:52.768Z,80.20
2022-11-29T22:49:20.461Z,80.30
2022-11-29T22:51:48.229Z,80.31
2022-11-29T22:54:18.075Z,80.37
2022-11-29T22:56:46.520Z,80.37
2022-11-29T22:59:14.468Z,80.47
2022-11-29T23:01:42.887Z,80.40
2022-11-29T23:04:13.637Z,80.33
2022-11-29T23:06:44.495Z,80.46
2022-11-29T23:09:16.406Z,80.49
2022-11-29T23:11:47.913Z,80.52
2022-11-29T23:14:15.830Z,80.50
2022-11-29T23:16:43.390Z,80.67
2022-11-29T23:19:11.984Z,80.65
2022-11-29T23:21:41.299Z,80.75
2022-11-29T23:24:09.423Z,80.86
2022-11-29T23:26:40.410Z,80.98
2022-11-29T23:29:11.918Z,81.00
2022-11-29T23:31:40.274Z,80.95
2022-11-29T23:34:08.702Z,81.13
2022-11-29T23:36:36.639Z,81.08
2022-11-29T23:39:09.085Z,81.14
2022-11-29T23:41:37.156Z,81.08
2022-11-29T23:44:05.711Z,81.11
2022-11-29T23:46:34.988Z,81.04
2022-11-29T23:49:03.034Z,81.18
2022-11-29T23:51:30.880Z,81.12
2022-11-29T23:53:58.505Z,81.11
2022-11-29T23:56:26.460Z,81.25
2022-11-29T23:58:54.098Z,81.20
